Pagina principale
METAR-TAF:

METAR-TAF

Aeroporti :

Aeroporto di Copenaghen

Copenaghen, Danimarca

latitudine: 55-37N, longitudine: 012-39E, altezza: 5 m

Osservazione

Il bollettino è stato emesso 5 minuti fa, alle 22:50 UTC
Vento 6 kt da ovest/sud-ovest
Temperature 18°C
Umidità 88%
Pressione 1017 hPa
Visibilità 10 km o più
nessuna nube inferiore a 1500 m e nessun cumulonembo

METAR: EKCH 152250Z 24006KT CAVOK 18/16 Q1017 NOSIG

Ora: 00:55 (22:55 UTC)

Previsione

Il bollettino è stato emesso 5 ore e 52 minuti fa, alle 17:03 UTC
Previsione valida dal 15 alle 18 UTC al 16 alle 18 UTC
Vento 8 kt da sud/sud-ovest
Visibilità 10 km o più
Nubi sparse ad un'altezza di 2000 ft
Evoluzione graduale
dal 16 alle 08 UTC al 16 alle 10 UTC
Vento 10 kt da sud
Temporaneamente
dal 16 alle 10 UTC al 16 alle 17 UTC
Vento 10 kt da sud con raffiche fino a 25 kt

TAF: EKCH 151703Z 1518/1618 21008KT 9999 SCT020 BECMG 1608/1610 18010KT TEMPO 1610/1617 18010G25KT

Osservazioni e previsioni meteorologiche di più di 4000 aeroporti (messaggi METAR e TAF).

Le stazioni disponibili sono rappresentate dai dischi gialli e rossi sulla carta.

Puntare il mouse per vedere il nome della stazione.

Clicca sopra per visualizzare le osservazioni e previsioni meteorologiche.

Per cambiare la mappa : fare clic sui pulsanti verdi con una croce nera per ingrandire, il pulsante verde con un trattino per diminuire, o sulla freccia verde per le mappe adiacenti.


METAR-TAF: